Time;durP1;ratioP1;P1;durP2;ratioP2;P2;SDS_P1;SDS_P2;PMS_P1;PMS_P2;Temp;Humidity;BMP_temperature;BMP_pressure;BME280_temperature;BME280_humidity;BME280_pressure;Samples;Min_cycle;Max_cycle;Signal;HPM_P1;HPM_P2
2021/01/01 00:02:13;;;;;;;164.80;31.87;;;-1.50;99.90;;;;;;4469149;27;659688;-69
2021/01/01 00:05:00;;;;;;;177.77;32.43;;;-1.50;99.90;;;;;;4497651;27;660913;-69
2021/01/01 00:07:47;;;;;;;227.50;29.60;;;-1.50;99.90;;;;;;4475319;27;659536;-65
2021/01/01 00:10:34;;;;;;;175.10;29.08;;;-1.60;99.90;;;;;;4490860;27;659571;-68
2021/01/01 00:13:22;;;;;;;238.52;32.80;;;-1.60;99.90;;;;;;4488484;27;660496;-68
2021/01/01 00:16:10;;;;;;;260.00;31.27;;;-1.50;99.90;;;;;;4473677;27;660447;-69
2021/01/01 00:18:57;;;;;;;316.57;34.03;;;-1.50;99.90;;;;;;4478873;27;659190;-66
2021/01/01 00:21:44;;;;;;;188.57;31.00;;;-1.60;99.90;;;;;;4491132;27;660435;-69
2021/01/01 00:24:31;;;;;;;172.33;30.47;;;-1.60;99.90;;;;;;4496888;27;659907;-69
2021/01/01 00:27:18;;;;;;;177.03;30.97;;;-1.60;99.90;;;;;;4472040;27;660261;-69
2021/01/01 00:30:07;;;;;;;207.40;31.10;;;-1.50;99.90;;;;;;4493168;27;661163;-69
2021/01/01 00:32:54;;;;;;;281.47;34.07;;;-1.50;99.90;;;;;;4462236;27;660474;-69
2021/01/01 00:35:41;;;;;;;221.17;33.30;;;-1.50;99.90;;;;;;4471145;27;659907;-69
2021/01/01 00:38:28;;;;;;;210.50;31.83;;;-1.40;99.90;;;;;;4470578;27;659726;-69
2021/01/01 00:41:20;;;;;;;341.83;37.67;;;-1.40;99.90;;;;;;4501695;27;661043;-69
2021/01/01 00:44:07;;;;;;;206.67;32.83;;;-1.40;99.90;;;;;;4442446;27;659488;-68
2021/01/01 00:46:55;;;;;;;331.40;37.33;;;-1.40;99.90;;;;;;4495981;27;660817;-69
2021/01/01 00:49:42;;;;;;;226.18;33.92;;;-1.40;99.90;;;;;;4474547;27;659656;-67
2021/01/01 00:52:29;;;;;;;249.80;31.33;;;-1.40;99.90;;;;;;4493914;27;659751;-69
2021/01/01 00:55:16;;;;;;;266.37;28.57;;;-1.40;99.90;;;;;;4484164;27;659429;-68
2021/01/01 00:58:03;;;;;;;239.70;28.50;;;-1.20;99.90;;;;;;4452149;27;659694;-68
2021/01/01 01:00:50;;;;;;;224.37;28.37;;;-1.10;99.90;;;;;;4501859;27;660620;-69
2021/01/01 01:03:38;;;;;;;167.73;26.40;;;-1.30;99.90;;;;;;4485801;27;659732;-65
2021/01/01 01:06:25;;;;;;;264.70;28.67;;;-1.20;99.90;;;;;;4498284;27;660871;-69
2021/01/01 01:09:12;;;;;;;260.03;29.60;;;-1.30;99.90;;;;;;4475259;27;659607;-67
2021/01/01 01:12:00;;;;;;;235.03;29.97;;;-1.40;99.90;;;;;;4495533;27;661081;-69
2021/01/01 01:14:47;;;;;;;249.80;31.27;;;-1.40;99.90;;;;;;4475152;27;660179;-66
2021/01/01 01:17:34;;;;;;;360.17;32.07;;;-1.40;99.90;;;;;;4490034;27;659710;-69
2021/01/01 01:20:22;;;;;;;335.83;31.90;;;-1.40;99.90;;;;;;4489502;27;659348;-69
2021/01/01 01:23:09;;;;;;;264.03;31.37;;;-1.40;99.90;;;;;;4469727;27;661115;-69
2021/01/01 01:25:56;;;;;;;294.33;31.80;;;-1.40;99.90;;;;;;4492524;27;660045;-69
2021/01/01 01:28:43;;;;;;;306.10;30.87;;;-1.40;99.90;;;;;;4465317;27;659942;-69
2021/01/01 01:31:29;;;;;;;284.27;29.80;;;-1.40;99.90;;;;;;4483850;27;661757;-69
2021/01/01 01:34:16;;;;;;;239.10;29.20;;;-1.40;99.90;;;;;;4466394;28;659502;-69
2021/01/01 01:37:04;;;;;;;185.63;26.33;;;-1.40;99.90;;;;;;4454081;27;660959;-69
2021/01/01 01:39:51;;;;;;;219.20;28.63;;;-1.40;99.90;;;;;;4490000;27;660477;-69
2021/01/01 01:42:38;;;;;;;277.52;29.13;;;-1.40;99.90;;;;;;4463625;27;659495;-68
2021/01/01 01:45:25;;;;;;;169.60;27.20;;;-1.50;99.90;;;;;;4488985;27;661419;-69
2021/01/01 01:48:13;;;;;;;161.13;27.63;;;-1.50;99.90;;;;;;4485607;27;659577;-66
2021/01/01 01:51:00;;;;;;;138.87;24.03;;;-1.40;99.90;;;;;;4483446;27;660455;-68
2021/01/01 01:53:48;;;;;;;149.38;25.10;;;-1.50;99.90;;;;;;4483320;27;660257;-66
2021/01/01 01:56:35;;;;;;;140.68;26.38;;;-1.50;99.90;;;;;;4497981;27;661091;-69
2021/01/01 01:59:22;;;;;;;138.13;26.85;;;-1.50;99.90;;;;;;4469501;27;659537;-67
2021/01/01 02:13:16;;;;;;;212.67;27.67;;;-1.30;99.90;;;;;;4465113;27;660658;-68
2021/01/01 02:16:04;;;;;;;195.03;28.03;;;-1.30;99.90;;;;;;4447621;27;659526;-68
2021/01/01 02:18:51;;;;;;;195.40;27.07;;;-1.40;99.90;;;;;;4493237;27;660856;-69
2021/01/01 02:21:41;;;;;;;326.40;27.77;;;-1.30;99.90;;;;;;4470512;27;659521;-65
2021/01/01 02:24:28;;;;;;;150.30;24.90;;;-1.30;99.90;;;;;;4468591;27;659645;-66
2021/01/01 02:27:15;;;;;;;119.90;24.20;;;-1.40;99.90;;;;;;4491389;27;660385;-68
2021/01/01 02:30:04;;;;;;;194.50;26.20;;;-1.40;99.90;;;;;;4482994;27;659579;-66
2021/01/01 02:32:52;;;;;;;248.77;26.10;;;-1.50;99.90;;;;;;4477231;27;660225;-69
2021/01/01 02:35:39;;;;;;;351.60;30.27;;;-1.60;99.90;;;;;;4467280;27;659823;-68
2021/01/01 02:38:26;;;;;;;159.85;25.40;;;-1.60;99.90;;;;;;4492590;27;661434;-69
2021/01/01 02:41:14;;;;;;;198.67;25.37;;;-1.60;99.90;;;;;;4481568;27;660432;-66
2021/01/01 02:44:00;;;;;;;254.48;29.58;;;-1.60;99.90;;;;;;4484218;27;659724;-69
2021/01/01 02:46:47;;;;;;;152.33;27.60;;;-1.60;99.90;;;;;;4468760;27;659241;-66
2021/01/01 02:49:34;;;;;;;159.90;26.50;;;-1.60;99.90;;;;;;4487673;27;661716;-69
2021/01/01 02:52:21;;;;;;;135.50;24.83;;;-1.50;99.90;;;;;;4483479;27;659714;-69
2021/01/01 02:55:09;;;;;;;193.33;26.03;;;-1.50;99.90;;;;;;4456301;27;659576;-67
2021/01/01 02:57:57;;;;;;;179.00;26.23;;;-1.60;99.90;;;;;;4486097;27;659204;-69
2021/01/01 03:00:48;;;;;;;197.50;25.67;;;-1.50;99.90;;;;;;4468557;27;661274;-69
2021/01/01 03:03:34;;;;;;;283.00;24.47;;;-1.60;99.90;;;;;;4472617;27;661071;-68
2021/01/01 03:06:21;;;;;;;343.87;27.70;;;-1.50;99.90;;;;;;4485592;27;661219;-69
2021/01/01 03:09:08;;;;;;;283.40;25.93;;;-1.50;99.90;;;;;;4476278;27;659622;-68
2021/01/01 03:11:55;;;;;;;201.43;25.57;;;-1.50;99.90;;;;;;4498746;27;659904;-69
2021/01/01 03:14:43;;;;;;;134.60;18.90;;;-1.50;99.90;;;;;;4489827;27;660240;-66
2021/01/01 03:17:30;;;;;;;203.13;24.33;;;-1.50;99.90;;;;;;4506802;27;659631;-68
2021/01/01 03:20:18;;;;;;;173.98;26.33;;;-1.50;99.90;;;;;;4477722;27;659767;-65
2021/01/01 03:23:05;;;;;;;290.85;30.05;;;-1.60;99.90;;;;;;4494700;27;660199;-69
2021/01/01 03:25:51;;;;;;;221.33;22.77;;;-1.60;99.90;;;;;;4493127;27;660033;-69
2021/01/01 03:28:38;;;;;;;112.67;21.10;;;-1.50;99.90;;;;;;4472563;27;659564;-69
2021/01/01 03:31:26;;;;;;;205.17;25.03;;;-1.30;99.90;;;;;;4476660;27;660975;-69
2021/01/01 03:34:13;;;;;;;174.37;24.63;;;-1.30;99.90;;;;;;4471555;27;659541;-67
2021/01/01 03:37:00;;;;;;;271.30;27.20;;;-1.50;99.90;;;;;;4494267;27;660798;-69
2021/01/01 03:39:47;;;;;;;282.27;27.80;;;-1.60;99.90;;;;;;4478645;27;660459;-66
2021/01/01 03:42:34;;;;;;;172.67;23.23;;;-1.70;99.90;;;;;;4494903;27;660879;-69
2021/01/01 03:45:21;;;;;;;229.97;26.90;;;-1.70;99.90;;;;;;4487913;27;659754;-69
2021/01/01 03:48:09;;;;;;;169.30;26.43;;;-1.80;99.90;;;;;;4465292;27;659760;-69
2021/01/01 03:50:56;;;;;;;171.53;24.80;;;-1.80;99.90;;;;;;4486667;27;660041;-69
2021/01/01 03:53:43;;;;;;;176.20;26.70;;;-1.80;99.90;;;;;;4468070;27;659923;-69
2021/01/01 03:56:30;;;;;;;277.07;28.10;;;-1.80;99.90;;;;;;4487789;27;661076;-69
2021/01/01 03:59:18;;;;;;;173.30;23.40;;;-1.80;99.90;;;;;;4481175;27;659540;-66
2021/01/01 04:02:05;;;;;;;173.43;25.30;;;-1.70;99.90;;;;;;4489234;27;660436;-69
2021/01/01 04:04:52;;;;;;;272.57;25.00;;;-1.70;99.90;;;;;;4487835;27;659529;-69
2021/01/01 04:07:40;;;;;;;275.97;29.13;;;-1.70;99.90;;;;;;4471698;27;660079;-69
2021/01/01 04:10:26;;;;;;;129.00;26.27;;;-1.70;99.90;;;;;;4495271;27;659948;-69
2021/01/01 04:13:13;;;;;;;138.57;25.47;;;-1.80;99.90;;;;;;4476272;27;660628;-68
2021/01/01 04:16:02;;;;;;;164.67;26.13;;;-1.80;99.90;;;;;;4494229;27;659864;-69
2021/01/01 04:18:49;;;;;;;146.87;22.13;;;-1.90;99.90;;;;;;4472864;27;659890;-69
2021/01/01 04:21:37;;;;;;;112.23;22.60;;;-1.90;99.90;;;;;;4492106;27;659811;-69
2021/01/01 04:24:24;;;;;;;114.63;23.75;;;-1.90;99.90;;;;;;4471905;27;659591;-69
2021/01/01 04:27:10;;;;;;;164.73;25.57;;;-1.90;99.90;;;;;;4486108;27;660567;-69
2021/01/01 04:29:57;;;;;;;157.83;24.53;;;-1.90;99.90;;;;;;4483647;27;660260;-66
2021/01/01 04:32:44;;;;;;;66.20;13.73;;;-1.90;99.90;;;;;;4492480;27;659849;-68
2021/01/01 04:35:31;;;;;;;237.83;20.07;;;-1.80;99.90;;;;;;4490280;27;659163;-68
2021/01/01 04:38:19;;;;;;;288.00;21.57;;;-1.80;99.90;;;;;;4473292;27;660309;-68
2021/01/01 04:41:08;;;;;;;79.93;11.93;;;-1.70;99.90;;;;;;4488798;27;659765;-68
2021/01/01 04:43:54;;;;;;;204.88;18.02;;;-1.70;99.90;;;;;;4457542;27;659562;-69
2021/01/01 04:46:41;;;;;;;163.10;18.30;;;-1.80;99.90;;;;;;4493433;27;659204;-69
2021/01/01 04:49:28;;;;;;;299.67;20.63;;;-1.90;99.90;;;;;;4460922;27;659780;-68
2021/01/01 04:52:16;;;;;;;210.57;19.43;;;-2.00;99.90;;;;;;4490489;27;660726;-69
2021/01/01 04:55:05;;;;;;;307.50;23.40;;;-2.10;99.90;;;;;;4477570;27;659617;-69
2021/01/01 04:57:53;;;;;;;335.25;23.55;;;-2.10;99.90;;;;;;4480255;27;659640;-66
2021/01/01 05:00:40;;;;;;;248.23;21.50;;;-2.10;99.90;;;;;;4492073;27;660950;-69
2021/01/01 05:03:27;;;;;;;242.90;20.77;;;-2.10;99.90;;;;;;4483673;27;659516;-65
2021/01/01 05:06:14;;;;;;;342.33;23.60;;;-2.10;99.90;;;;;;4498092;27;659651;-69
2021/01/01 05:09:01;;;;;;;200.30;21.57;;;-2.10;99.90;;;;;;4492804;27;661205;-68
2021/01/01 05:11:49;;;;;;;296.57;26.60;;;-2.10;99.90;;;;;;4463363;27;659736;-68
2021/01/01 05:14:36;;;;;;;313.67;25.17;;;-2.10;99.90;;;;;;4491920;27;659677;-69
2021/01/01 05:17:33;;;;;;;203.70;24.17;;;-2.10;99.90;;;;;;4474873;27;659766;-69
2021/01/01 05:20:19;;;;;;;129.03;20.77;;;-2.10;99.90;;;;;;4448451;27;660266;-69
2021/01/01 05:23:07;;;;;;;217.77;22.90;;;-2.00;99.90;;;;;;4492975;27;660080;-69
2021/01/01 05:26:09;;;;;;;135.40;21.37;;;-2.00;99.90;;;;;;4463932;27;660104;-69
2021/01/01 05:28:58;;;;;;;133.80;20.07;;;-2.00;99.90;;;;;;4466416;27;659652;-69
2021/01/01 05:31:45;;;;;;;186.87;22.87;;;-2.00;99.90;;;;;;4473008;27;660532;-68
2021/01/01 05:34:40;;;;;;;272.50;22.33;;;-2.00;99.90;;;;;;4492537;27;659930;-69
2021/01/01 05:37:28;;;;;;;117.53;19.00;;;-1.70;99.90;;;;;;4441724;27;660673;-66
2021/01/01 05:40:16;;;;;;;148.27;20.57;;;-1.70;99.90;;;;;;4489180;27;660356;-69
2021/01/01 05:43:17;;;;;;;124.47;17.57;;;-1.80;99.90;;;;;;4469110;27;659904;-68
2021/01/01 05:46:08;;;;;;;117.23;19.07;;;-1.90;99.90;;;;;;4440902;27;660464;-69
2021/01/01 05:49:00;;;;;;;152.90;18.23;;;-2.00;99.90;;;;;;4463033;27;661379;-69
2021/01/01 05:51:57;;;;;;;159.27;18.77;;;-2.00;99.90;;;;;;4457505;27;659953;-69
2021/01/01 05:54:44;;;;;;;92.97;17.47;;;-2.00;99.90;;;;;;4454862;27;660209;-68
2021/01/01 05:57:34;;;;;;;162.37;18.80;;;-2.00;99.90;;;;;;4487371;27;658570;-69
2021/01/01 06:00:22;;;;;;;206.53;19.10;;;-2.10;99.90;;;;;;4474111;27;660862;-69
2021/01/01 06:03:10;;;;;;;107.37;15.73;;;-2.10;99.90;;;;;;4470410;27;661144;-68
2021/01/01 06:05:58;;;;;;;199.27;20.30;;;-2.00;99.90;;;;;;4479918;27;659566;-66
2021/01/01 06:08:45;;;;;;;137.27;18.53;;;-1.80;99.90;;;;;;4493196;27;661097;-69
2021/01/01 06:11:36;;;;;;;152.20;19.50;;;-1.80;99.90;;;;;;4481492;27;659695;-69
2021/01/01 06:14:26;;;;;;;207.00;22.23;;;-1.90;99.90;;;;;;4439161;27;659557;-68
2021/01/01 06:17:20;;;;;;;78.17;14.23;;;-1.80;99.90;;;;;;4466831;27;659740;-68
2021/01/01 06:20:08;;;;;;;141.53;16.73;;;-1.70;99.90;;;;;;4471765;27;658858;-69
2021/01/01 06:23:02;;;;;;;102.83;16.67;;;-1.60;99.90;;;;;;4466626;27;660777;-69
2021/01/01 06:25:49;;;;;;;195.77;19.57;;;-1.60;99.90;;;;;;4446778;27;660225;-68
2021/01/01 06:28:37;;;;;;;151.57;19.50;;;-1.80;99.90;;;;;;4489406;27;660855;-67
2021/01/01 06:31:23;;;;;;;167.90;17.30;;;-2.00;99.90;;;;;;4471278;27;659645;-68
2021/01/01 06:34:24;;;;;;;159.90;20.13;;;-2.00;99.90;;;;;;4489099;27;660702;-69
2021/01/01 06:37:32;;;;;;;118.40;18.50;;;-2.00;99.90;;;;;;4451641;27;659979;-68
2021/01/01 06:40:35;;;;;;;156.80;20.58;;;-2.10;99.90;;;;;;4472392;27;659204;-69
2021/01/01 06:43:22;;;;;;;143.50;19.83;;;-2.10;99.90;;;;;;4444861;27;660101;-67
2021/01/01 06:46:09;;;;;;;165.93;21.97;;;-2.10;99.90;;;;;;4487719;27;662964;-69
2021/01/01 06:48:56;;;;;;;266.80;23.37;;;-2.00;99.90;;;;;;4498342;27;660468;-69
2021/01/01 06:51:43;;;;;;;99.50;20.83;;;-2.10;99.90;;;;;;4465712;27;660112;-68
2021/01/01 06:54:31;;;;;;;133.97;19.77;;;-2.10;99.90;;;;;;4502027;27;659602;-68
2021/01/01 06:57:18;;;;;;;190.80;20.97;;;-2.00;99.90;;;;;;4422053;28;660404;-68
2021/01/01 07:00:06;;;;;;;148.27;21.93;;;-2.00;99.90;;;;;;4448744;28;660883;-68
2021/01/01 07:02:53;;;;;;;155.47;21.40;;;-2.00;99.90;;;;;;4422738;28;659274;-68
2021/01/01 07:05:40;;;;;;;120.40;21.17;;;-2.00;99.90;;;;;;4441451;28;661053;-69
2021/01/01 07:08:45;;;;;;;168.50;22.30;;;-2.00;99.90;;;;;;4448935;28;660111;-69
2021/01/01 07:11:38;;;;;;;121.17;20.57;;;-2.00;99.90;;;;;;4412976;28;660120;-66
2021/01/01 07:14:24;;;;;;;164.70;21.03;;;-2.00;99.90;;;;;;4429220;28;661248;-69
2021/01/01 07:17:11;;;;;;;195.17;22.90;;;-1.90;99.90;;;;;;4446278;28;660831;-69
2021/01/01 07:19:58;;;;;;;152.80;19.50;;;-1.80;99.90;;;;;;4429781;28;660520;-69
2021/01/01 07:22:45;;;;;;;183.17;20.97;;;-1.80;99.90;;;;;;4462435;28;660738;-69
2021/01/01 07:25:36;;;;;;;117.93;20.77;;;-1.80;99.90;;;;;;4444409;28;660436;-66
2021/01/01 07:28:24;;;;;;;144.67;24.13;;;-1.90;99.90;;;;;;4425292;28;660777;-68
2021/01/01 07:31:13;;;;;;;114.60;20.43;;;-1.90;99.90;;;;;;4452337;28;660131;-69
2021/01/01 07:34:08;;;;;;;112.47;24.27;;;-1.80;99.90;;;;;;4428566;28;661615;-69
2021/01/01 07:36:56;;;;;;;132.93;26.93;;;-1.80;99.90;;;;;;4405006;27;660760;-69
2021/01/01 07:39:43;;;;;;;173.23;23.73;;;-1.70;99.90;;;;;;4425837;28;659438;-68
2021/01/01 07:42:30;;;;;;;164.10;23.50;;;-1.70;99.90;;;;;;4453615;28;660528;-69
2021/01/01 07:45:18;;;;;;;121.83;23.00;;;-1.80;99.90;;;;;;4441929;28;659732;-68
2021/01/01 07:48:05;;;;;;;130.80;21.83;;;-1.80;99.90;;;;;;4440370;28;660606;-70
2021/01/01 07:50:53;;;;;;;281.50;26.57;;;-1.80;99.90;;;;;;4437905;28;659581;-65
2021/01/01 07:53:40;;;;;;;86.30;21.13;;;-1.80;99.90;;;;;;4447004;27;660238;-69
2021/01/01 07:56:28;;;;;;;262.30;26.45;;;-1.80;99.90;;;;;;4457260;27;658718;-68
2021/01/01 07:59:14;;;;;;;123.25;17.35;;;-1.80;99.90;;;;;;4498386;27;660690;-68
2021/01/01 08:02:02;;;;;;;171.07;23.57;;;-1.80;99.90;;;;;;4497686;27;659930;-69
2021/01/01 08:04:49;;;;;;;109.17;24.23;;;-1.80;99.90;;;;;;4477890;27;660246;-69
2021/01/01 08:07:36;;;;;;;92.13;22.03;;;-1.70;99.90;;;;;;4473047;27;659916;-70
2021/01/01 08:10:32;;;;;;;213.67;23.90;;;-1.70;99.90;;;;;;4458070;27;660193;-69
2021/01/01 08:13:20;;;;;;;119.63;15.93;;;-1.60;99.90;;;;;;4432009;27;661113;-70
2021/01/01 08:16:13;;;;;;;175.90;22.03;;;-1.50;99.90;;;;;;4475807;27;659674;-70
2021/01/01 08:19:01;;;;;;;101.33;19.43;;;-1.60;99.90;;;;;;4444595;27;659813;-70
2021/01/01 08:21:48;;;;;;;156.10;25.90;;;-1.60;99.90;;;;;;4449891;27;659467;-68
2021/01/01 08:24:35;;;;;;;94.23;24.93;;;-1.50;99.90;;;;;;4475571;27;660925;-69
2021/01/01 08:27:23;;;;;;;112.87;27.00;;;-1.50;99.90;;;;;;4474731;27;658615;-67
2021/01/01 08:30:11;;;;;;;119.93;23.70;;;-1.40;99.90;;;;;;4485311;27;659953;-70
2021/01/01 08:32:58;;;;;;;153.27;23.15;;;-1.40;99.90;;;;;;4459410;27;659854;-66
2021/01/01 08:35:46;;;;;;;144.00;24.10;;;-1.20;99.90;;;;;;4481553;27;659897;-70
2021/01/01 08:38:33;;;;;;;75.67;20.73;;;-1.20;99.90;;;;;;4452114;27;659843;-69
2021/01/01 08:41:20;;;;;;;83.33;19.53;;;-1.10;99.90;;;;;;4477549;27;659890;-67
2021/01/01 08:44:08;;;;;;;111.03;20.63;;;-1.10;99.90;;;;;;4477326;27;659158;-69
2021/01/01 08:46:59;;;;;;;134.20;21.77;;;-0.90;99.90;;;;;;4447098;27;660762;-68
2021/01/01 08:49:46;;;;;;;113.00;20.77;;;-1.00;99.90;;;;;;4459681;27;659934;-70
2021/01/01 08:52:34;;;;;;;146.57;23.17;;;-1.10;99.90;;;;;;4459406;27;659968;-67
2021/01/01 08:55:21;;;;;;;119.97;20.60;;;-1.10;99.90;;;;;;4486937;27;660422;-69
2021/01/01 08:58:11;;;;;;;105.83;23.50;;;-1.10;99.90;;;;;;4459550;27;659882;-68
2021/01/01 09:00:58;;;;;;;92.37;19.50;;;-1.00;99.90;;;;;;4457504;27;659802;-69
2021/01/01 09:03:45;;;;;;;139.63;24.60;;;-1.00;99.90;;;;;;4480957;27;660222;-69
2021/01/01 09:06:33;;;;;;;133.37;21.30;;;-1.00;99.90;;;;;;4462921;27;659585;-66
2021/01/01 09:09:25;;;;;;;126.50;22.00;;;-1.00;99.90;;;;;;4479400;27;659810;-69
2021/01/01 09:12:15;;;;;;;110.87;20.77;;;-1.00;99.90;;;;;;4451215;27;659718;-69
2021/01/01 09:15:03;;;;;;;198.77;22.63;;;-1.00;99.90;;;;;;4444563;27;660099;-66
2021/01/01 09:17:50;;;;;;;121.23;22.43;;;-1.00;99.90;;;;;;4472124;27;660560;-68
2021/01/01 09:20:40;;;;;;;92.73;23.63;;;-1.00;99.90;;;;;;4482864;27;660054;-70
2021/01/01 09:23:29;;;;;;;117.50;26.65;;;-0.90;99.90;;;;;;4448402;27;658743;-67
2021/01/01 09:26:22;;;;;;;126.50;27.53;;;-0.90;99.90;;;;;;4482777;27;660319;-69
2021/01/01 09:29:09;;;;;;;112.60;26.80;;;-0.80;99.90;;;;;;4437927;27;660459;-69
2021/01/01 09:31:56;;;;;;;163.30;26.20;;;-0.80;99.90;;;;;;4466954;27;659241;-69
2021/01/01 09:34:43;;;;;;;103.87;25.87;;;-0.80;99.90;;;;;;4457101;27;659610;-69
2021/01/01 09:37:30;;;;;;;108.53;26.10;;;-0.70;99.90;;;;;;4475963;27;659736;-70
2021/01/01 09:40:18;;;;;;;119.43;25.70;;;-0.80;99.90;;;;;;4471889;27;659700;-67
2021/01/01 09:43:06;;;;;;;164.00;24.07;;;-0.70;99.90;;;;;;4476103;27;660654;-69
2021/01/01 09:45:53;;;;;;;124.23;23.97;;;-0.70;99.90;;;;;;4455553;27;659674;-69
2021/01/01 09:48:40;;;;;;;112.17;23.57;;;-0.60;99.90;;;;;;4472428;27;660553;-69
2021/01/01 09:51:27;;;;;;;135.17;23.10;;;-0.50;99.90;;;;;;4468531;27;661207;-70
2021/01/01 09:54:14;;;;;;;101.70;23.98;;;-0.50;99.90;;;;;;4463599;27;659690;-69
2021/01/01 09:57:01;;;;;;;95.63;25.70;;;-0.40;99.90;;;;;;4480662;27;660183;-70
2021/01/01 09:59:48;;;;;;;95.90;24.75;;;-0.40;99.90;;;;;;4448923;27;658585;-66
2021/01/01 10:02:35;;;;;;;133.37;27.97;;;-0.30;99.90;;;;;;4475275;27;659286;-69
2021/01/01 10:05:24;;;;;;;104.43;26.67;;;-0.40;99.90;;;;;;4454003;27;659705;-68
2021/01/01 10:08:11;;;;;;;96.93;24.33;;;-0.30;99.90;;;;;;4468474;27;659373;-70
2021/01/01 10:11:04;;;;;;;113.23;25.30;;;-0.20;99.90;;;;;;4461114;27;658896;-70
2021/01/01 10:13:51;;;;;;;126.73;26.10;;;-0.10;99.90;;;;;;4447179;27;660484;-70
2021/01/01 10:16:39;;;;;;;109.63;24.30;;;-0.10;99.90;;;;;;4454239;27;659837;-69
2021/01/01 10:19:26;;;;;;;91.47;26.67;;;0.00;99.90;;;;;;4473445;27;660263;-70
2021/01/01 10:22:13;;;;;;;120.90;30.43;;;0.00;99.90;;;;;;4459720;27;657458;-70
2021/01/01 10:25:00;;;;;;;105.30;29.07;;;0.10;99.90;;;;;;4475251;27;659386;-69
2021/01/01 10:27:47;;;;;;;88.40;25.33;;;0.10;99.90;;;;;;4475590;27;659129;-69
2021/01/01 10:30:34;;;;;;;95.30;28.60;;;0.20;99.90;;;;;;4463491;27;657974;-69
2021/01/01 10:33:22;;;;;;;104.93;27.23;;;0.30;99.90;;;;;;4476966;27;658477;-70
2021/01/01 10:36:12;;;;;;;92.93;28.33;;;0.30;99.90;;;;;;4453864;27;658757;-70
2021/01/01 10:38:59;;;;;;;73.50;24.40;;;0.40;99.90;;;;;;4457114;27;658541;-69
2021/01/01 10:41:48;;;;;;;87.50;23.33;;;0.50;99.90;;;;;;4475833;27;658715;-70
2021/01/01 10:44:35;;;;;;;64.60;22.57;;;0.70;99.90;;;;;;4453183;28;658217;-70
2021/01/01 10:47:22;;;;;;;101.33;26.43;;;0.60;99.90;;;;;;4477330;28;657989;-70
2021/01/01 10:50:11;;;;;;;90.23;26.80;;;0.60;99.90;;;;;;4452882;28;658865;-70
2021/01/01 10:52:58;;;;;;;111.07;27.50;;;0.50;99.90;;;;;;4454555;28;657743;-69
2021/01/01 10:55:45;;;;;;;72.03;21.30;;;0.60;99.90;;;;;;4473088;28;659366;-70
2021/01/01 10:58:33;;;;;;;83.50;20.10;;;0.80;99.90;;;;;;4469271;28;657941;-67
2021/01/01 11:01:20;;;;;;;88.63;23.63;;;0.80;99.90;;;;;;4473985;28;657513;-70
2021/01/01 11:04:07;;;;;;;53.70;16.58;;;0.60;99.90;;;;;;4491992;27;657879;-70
2021/01/01 11:06:54;;;;;;;54.63;17.00;;;0.80;99.90;;;;;;4455515;28;658121;-69
2021/01/01 11:09:41;;;;;;;101.00;24.70;;;1.10;99.90;;;;;;4476116;27;657899;-70
2021/01/01 11:12:29;;;;;;;78.80;20.80;;;1.10;99.90;;;;;;4456005;27;658743;-69
2021/01/01 12:23:37;;;;;;;86.43;29.97;;;0.90;99.90;;;;;;4452971;27;658831;-68
2021/01/01 12:26:26;;;;;;;88.30;29.70;;;1.00;99.90;;;;;;4447593;27;658128;-68
2021/01/01 12:29:13;;;;;;;97.63;27.87;;;1.00;99.90;;;;;;4455819;27;657928;-65
2021/01/01 12:32:01;;;;;;;72.17;26.33;;;1.10;99.90;;;;;;4479285;27;658095;-69
2021/01/01 12:34:48;;;;;;;66.90;24.97;;;0.90;99.90;;;;;;4458521;27;657663;-67
2021/01/01 12:37:36;;;;;;;159.90;32.97;;;0.90;99.90;;;;;;4469584;27;659496;-68
2021/01/01 12:40:25;;;;;;;107.87;31.13;;;0.90;99.90;;;;;;4432389;27;658842;-68
2021/01/01 12:43:14;;;;;;;91.60;28.90;;;0.70;99.90;;;;;;4455526;27;658468;-65
2021/01/01 12:46:01;;;;;;;98.27;29.33;;;0.60;99.90;;;;;;4480092;27;657391;-68
2021/01/01 12:48:49;;;;;;;82.33;27.43;;;0.50;99.90;;;;;;4450159;27;658715;-68
2021/01/01 12:51:36;;;;;;;76.90;23.27;;;0.50;99.90;;;;;;4473780;27;658113;-68
2021/01/01 12:54:25;;;;;;;72.33;24.50;;;0.60;99.90;;;;;;4455285;27;657823;-67
2021/01/01 12:57:12;;;;;;;63.40;21.23;;;0.50;99.90;;;;;;4487523;27;657717;-69
2021/01/01 13:00:00;;;;;;;118.40;27.37;;;0.40;99.90;;;;;;4468145;27;657594;-69
2021/01/01 13:02:47;;;;;;;83.63;23.03;;;0.40;99.90;;;;;;4495046;27;659388;-68
2021/01/01 13:05:34;;;;;;;130.77;29.37;;;0.30;99.90;;;;;;4473700;27;657632;-68
2021/01/01 13:08:21;;;;;;;114.60;29.80;;;0.30;99.90;;;;;;4490835;27;659229;-68
2021/01/01 13:11:08;;;;;;;144.53;31.87;;;0.30;99.90;;;;;;4475458;27;659342;-66
2021/01/01 13:13:55;;;;;;;136.93;32.17;;;0.30;99.90;;;;;;4487557;27;659506;-68
2021/01/01 13:16:43;;;;;;;147.57;35.17;;;0.30;99.90;;;;;;4488526;27;658740;-68
2021/01/01 13:19:30;;;;;;;130.33;34.23;;;0.30;99.90;;;;;;4471718;27;659451;-69
2021/01/01 13:22:18;;;;;;;146.68;35.00;;;0.40;99.90;;;;;;4476704;27;658653;-66
2021/01/01 13:25:06;;;;;;;91.13;29.67;;;0.40;99.90;;;;;;4495644;27;658887;-69
2021/01/01 13:27:53;;;;;;;86.87;30.03;;;0.40;99.90;;;;;;4465173;27;658202;-66
2021/01/01 13:30:41;;;;;;;104.33;31.83;;;0.40;99.90;;;;;;4495891;27;657872;-68
2021/01/01 13:33:29;;;;;;;116.77;33.23;;;0.40;99.90;;;;;;4470454;27;658500;-67
2021/01/01 13:36:16;;;;;;;146.90;40.23;;;0.30;99.90;;;;;;4501458;27;659873;-68
2021/01/01 13:39:04;;;;;;;101.23;30.30;;;0.30;99.90;;;;;;4482725;27;658933;-67
2021/01/01 13:41:51;;;;;;;91.80;26.40;;;0.50;99.90;;;;;;4490651;27;659675;-69
2021/01/01 13:44:38;;;;;;;94.23;30.10;;;0.40;99.90;;;;;;4459186;27;657829;-68
2021/01/01 13:47:25;;;;;;;108.83;33.20;;;0.50;99.90;;;;;;4496595;27;658849;-68
2021/01/01 13:50:14;;;;;;;88.90;25.60;;;0.40;99.90;;;;;;4482556;27;658668;-66
2021/01/01 13:53:01;;;;;;;232.57;80.50;;;0.50;99.90;;;;;;4490645;27;657452;-68
2021/01/01 13:55:48;;;;;;;144.43;53.40;;;0.30;99.90;;;;;;4462273;27;659472;-68
2021/01/01 13:58:35;;;;;;;132.27;45.73;;;0.20;99.90;;;;;;4485527;27;659990;-69
2021/01/01 14:01:23;;;;;;;97.97;34.10;;;0.00;99.90;;;;;;4479589;27;658828;-65
2021/01/01 14:04:10;;;;;;;113.93;32.53;;;-0.10;99.90;;;;;;4489022;27;658381;-69
2021/01/01 14:06:59;;;;;;;114.00;35.23;;;-0.10;99.90;;;;;;4475374;27;659707;-65
2021/01/01 14:09:46;;;;;;;108.70;31.97;;;-0.10;99.90;;;;;;4478161;27;659810;-69
2021/01/01 14:12:33;;;;;;;145.50;38.60;;;-0.20;99.90;;;;;;4473897;27;659705;-65
2021/01/01 14:15:20;;;;;;;133.75;37.25;;;-0.20;99.90;;;;;;4481511;27;659643;-68
2021/01/01 14:18:07;;;;;;;146.40;42.57;;;-0.30;99.90;;;;;;4488870;27;659931;-68
2021/01/01 14:20:54;;;;;;;128.90;41.00;;;-0.30;99.90;;;;;;4457541;27;659654;-66
2021/01/01 14:23:42;;;;;;;120.33;35.77;;;-0.40;99.90;;;;;;4484595;27;660616;-68
2021/01/01 14:26:29;;;;;;;168.70;51.50;;;-0.40;99.90;;;;;;4462524;27;661718;-68
2021/01/01 14:29:16;;;;;;;132.47;39.37;;;-0.50;99.90;;;;;;4486940;27;660934;-68
2021/01/01 14:32:03;;;;;;;132.67;31.03;;;-0.60;99.90;;;;;;4472146;27;659991;-67
2021/01/01 14:34:52;;;;;;;130.93;36.60;;;-0.70;99.90;;;;;;4476625;27;660258;-68
2021/01/01 14:37:39;;;;;;;102.63;27.27;;;-0.70;99.90;;;;;;4470924;27;659660;-67
2021/01/01 14:40:27;;;;;;;76.47;24.27;;;-0.70;99.90;;;;;;4491122;27;660456;-68
2021/01/01 14:43:14;;;;;;;131.47;45.33;;;-0.50;99.90;;;;;;4466002;27;660460;-68
2021/01/01 14:46:01;;;;;;;151.50;39.63;;;-0.70;99.90;;;;;;4490681;27;660180;-68
2021/01/01 14:48:48;;;;;;;171.27;45.50;;;-0.70;99.90;;;;;;4470950;27;660660;-67
2021/01/01 14:51:36;;;;;;;241.20;39.60;;;-0.80;99.90;;;;;;4492853;27;660554;-68
2021/01/01 14:54:25;;;;;;;124.47;30.80;;;-0.70;99.90;;;;;;4476703;27;659478;-68
2021/01/01 14:57:14;;;;;;;103.10;26.93;;;-0.80;99.90;;;;;;4462271;27;659893;-65
2021/01/01 15:00:02;;;;;;;155.27;30.07;;;-0.80;99.90;;;;;;4488964;27;660343;-68
2021/01/01 15:02:51;;;;;;;124.50;26.23;;;-0.80;99.90;;;;;;4452980;27;659741;-68
2021/01/01 15:05:38;;;;;;;127.90;28.97;;;-0.80;99.90;;;;;;4469732;27;660611;-68
2021/01/01 15:08:25;;;;;;;105.93;28.67;;;-0.80;99.90;;;;;;4493488;27;660213;-68
2021/01/01 15:11:13;;;;;;;108.73;27.97;;;-0.90;99.90;;;;;;4473298;27;659649;-62
2021/01/01 15:14:06;;;;;;;217.15;53.00;;;-1.00;99.90;;;;;;4499462;27;659724;-68